Durango, CO

7:27 PM MDT on August 27, 2014 (GMT -0600)
Falls Creek Ranch | Change Station
CLOSE
Current Station
Personal Weather Station
Location: Durango, CO
Elevation: 7560 ft
Nearby Weather Stations
Active Advisory: Special Statement Active Notice: Public Information Statement

Elev 7560 ft 37.29 °N, 107.87 °W | Updated 5 minutes ago

Overcast
Overcast
49.5 °F
Feels Like 50 °F
N
0.0
Wind Variable Wind from SW

Today
High -- | Low -- °F
--% Chance of Precip.
Yesterday
High -- | Low -- °F
Precip. -- in
6:37 AM 7:47 PM
Waxing Crescent, 5% visible
Pressure 30.08 in
Visibility 10.0 miles
Clouds Mostly Cloudy 7000 ft
Mostly Cloudy 8000 ft
Windchill 50 °F
Dew Point 47 °F
Humidity 92%
Rainfall 0.10 in
Snow Depth 0 in , 0 in , 0 in
UV 2 out of 12
Pollen 5.50 out of 12
Air Quality Not available.
Flu Activity Not available.
METAR KDRO 272253Z AUTO 27014G19KT 10SM BKN070 BKN080 21/04 A3028 RMK AO2 LTG DSNT E AND SE SLP184 T02110039

More Conditions Fewer Conditions

Pressure 30.08 in
Visibility 10.0 miles
Clouds Mostly Cloudy 7000 ft
Mostly Cloudy 8000 ft
Windchill 50 °F
Dew Point 47 °F
Humidity 92%
Rainfall 0.10 in
Snow Depth 0 in , 0 in , 0 in
UV 2 out of 12
Pollen 5.50 out of 12
Air Quality Not available.
Flu Activity Not available.
METAR KDRO 272253Z AUTO 27014G19KT 10SM BKN070 BKN080 21/04 A3028 RMK AO2 LTG DSNT E AND SE SLP184 T02110039

More Conditions Fewer Conditions

10-Day Weather Forecast

Almanac

Astronomy

Aug. 27, 2014 Rise Set
Actual Time 6:37 AM MDT 7:47 PM MDT
Civil Twilight 6:10 AM MDT 8:14 PM MDT
Nautical Twilight 5:38 AM MDT 8:46 PM MDT
Astronomical Twilight 5:05 AM MDT 9:19 PM MDT
Moon 8:33 AM MDT (8/27) 8:45 PM MDT (8/27)
Length of Visible Light 14h 03m
Length of Day
13h 09m
Tomorrow will be 2m 15s shorter.
Waxing Crescent, 5% of the Moon is Illuminated
Today
Waxing Crescent
Sep 2
First Quarter
Sep 8
Full
Sep 15
Last Quarter
Sep 24
New

Today's Extremes

State Highs State Lows

Community

WunderPhotos

Upload Photos

1,747,845 photos uploaded!

Nearby

Snow Depth

Station Depth Elevation
Columbus Basin 0 in 10785 ft
Stump Lakes 0 in 11200 ft
Sharkstooth 0 in 10720 ft
Vallecito 0 in 10880 ft
Cascade 0 in 8880 ft

Earthquake Activity

City Distance Mag. Time & Date
No recent earthquake activity has been reported nearby.
Minimum magnitude displayed is 2.5.

Coastal Water Temperatures

Place Temperature
No Stations Reporting

Nearby Weather Stations